createdAt,value
2023-04-03T00:00:38.239Z,1.60
2023-04-03T00:03:05.190Z,1.80
2023-04-03T00:05:31.840Z,1.42
2023-04-03T00:07:58.440Z,1.60
2023-04-03T00:10:25.118Z,1.65
2023-04-03T00:12:51.713Z,1.60
2023-04-03T00:15:19.773Z,1.40
2023-04-03T00:17:46.575Z,1.83
2023-04-03T00:20:13.388Z,1.83
2023-04-03T00:22:40.070Z,1.58
2023-04-03T00:25:07.959Z,1.90
2023-04-03T00:27:36.489Z,1.45
2023-04-03T00:30:04.052Z,1.50
2023-04-03T00:32:32.165Z,1.50
2023-04-03T00:34:58.954Z,1.40
2023-04-03T00:37:25.605Z,1.77
2023-04-03T00:39:52.271Z,1.50
2023-04-03T00:42:18.899Z,1.50
2023-04-03T00:45:28.166Z,2.00
2023-04-03T00:47:57.808Z,1.45
2023-04-03T00:50:24.550Z,1.70
2023-04-03T00:52:51.969Z,1.55
2023-04-03T00:55:18.796Z,1.88
2023-04-03T00:57:46.757Z,1.60
2023-04-03T01:00:17.097Z,2.00
2023-04-03T01:02:44.814Z,2.27
2023-04-03T01:05:13.959Z,1.75
2023-04-03T01:07:41.189Z,1.73
2023-04-03T01:10:10.825Z,1.65
2023-04-03T01:12:39.444Z,2.20
2023-04-03T01:15:11.996Z,2.20
2023-04-03T01:17:40.962Z,1.80
2023-04-03T01:20:52.258Z,2.00
2023-04-03T01:23:30.843Z,1.50
2023-04-03T01:25:58.260Z,2.08
2023-04-03T01:28:27.148Z,2.10
2023-04-03T01:31:03.445Z,2.00
2023-04-03T01:33:31.604Z,2.38
2023-04-03T01:35:58.435Z,2.05
2023-04-03T01:38:25.231Z,2.10
2023-04-03T01:40:51.927Z,1.90
2023-04-03T01:43:18.614Z,1.80
2023-04-03T01:45:45.235Z,2.20
2023-04-03T01:48:11.897Z,2.28
2023-04-03T01:50:39.952Z,2.10
2023-04-03T01:53:06.591Z,2.00
2023-04-03T01:55:33.252Z,2.15
2023-04-03T01:57:59.837Z,1.90
2023-04-03T02:00:26.482Z,1.75
2023-04-03T02:02:53.228Z,1.83
2023-04-03T02:05:19.878Z,1.87
2023-04-03T02:07:47.840Z,2.17
2023-04-03T02:10:14.581Z,1.70
2023-04-03T02:12:41.176Z,1.90
2023-04-03T02:15:08.681Z,2.13
2023-04-03T02:17:36.216Z,1.83
2023-04-03T02:20:03.562Z,1.85
2023-04-03T02:22:30.148Z,2.10
2023-04-03T02:24:58.100Z,2.05
2023-04-03T02:27:24.866Z,2.15
2023-04-03T02:29:51.518Z,1.90
2023-04-03T02:32:18.166Z,2.00
2023-04-03T02:34:44.786Z,1.60
2023-04-03T02:37:11.532Z,1.70
2023-04-03T02:39:38.286Z,2.10
2023-04-03T02:42:06.512Z,2.37
2023-04-03T02:44:33.142Z,1.90
2023-04-03T02:46:59.749Z,2.08
2023-04-03T02:49:26.322Z,2.03
2023-04-03T02:51:52.901Z,2.10
2023-04-03T02:54:19.628Z,2.20
2023-04-03T02:56:46.267Z,2.28
2023-04-03T02:59:14.387Z,2.42
2023-04-03T03:01:40.965Z,1.90
2023-04-03T03:04:07.815Z,1.80
2023-04-03T03:06:34.631Z,2.13
2023-04-03T03:09:01.247Z,2.30
2023-04-03T03:11:27.948Z,2.40
2023-04-03T03:13:54.564Z,2.47
2023-04-03T03:16:22.743Z,2.28
2023-04-03T03:18:49.458Z,2.40
2023-04-03T03:21:16.181Z,2.22
2023-04-03T03:23:42.866Z,2.47
2023-04-03T03:26:11.454Z,2.20
2023-04-03T03:28:39.977Z,2.30
2023-04-03T03:31:07.571Z,2.17
2023-04-03T03:33:35.561Z,2.15
2023-04-03T03:36:02.414Z,2.35
2023-04-03T03:38:29.124Z,1.90
2023-04-03T03:40:55.713Z,2.45
2023-04-03T03:43:22.424Z,2.27
2023-04-03T03:45:52.257Z,2.47
2023-04-03T03:48:19.369Z,2.47
2023-04-03T03:50:47.632Z,2.05
2023-04-03T03:53:14.423Z,2.22
2023-04-03T03:55:41.082Z,2.07
2023-04-03T03:58:07.685Z,2.17
2023-04-03T04:00:34.268Z,2.53
2023-04-03T04:03:00.981Z,2.42
2023-04-03T04:05:27.673Z,2.28
2023-04-03T04:07:55.675Z,2.20
2023-04-03T04:10:22.354Z,2.22
2023-04-03T04:12:48.917Z,1.83
2023-04-03T04:15:15.707Z,2.42
2023-04-03T04:17:42.322Z,2.35
2023-04-03T04:20:09.587Z,1.97
2023-04-03T04:22:36.169Z,2.00
2023-04-03T04:25:04.930Z,2.53
2023-04-03T04:27:31.522Z,1.70
2023-04-03T04:29:59.463Z,1.95
2023-04-03T04:32:26.200Z,2.07
2023-04-03T04:34:52.987Z,1.63
2023-04-03T04:37:19.599Z,1.80
2023-04-03T04:39:46.288Z,2.03
2023-04-03T04:42:16.741Z,1.73
2023-04-03T04:44:44.797Z,2.17
2023-04-03T04:47:11.386Z,2.40
2023-04-03T04:49:38.067Z,1.92
2023-04-03T04:52:04.966Z,2.08
2023-04-03T04:54:31.662Z,1.52
2023-04-03T04:56:58.253Z,1.80
2023-04-03T04:59:26.273Z,1.92
2023-04-03T05:01:53.030Z,1.67
2023-04-03T05:04:19.704Z,1.88
2023-04-03T05:06:46.389Z,1.80
2023-04-03T05:09:13.035Z,1.97
2023-04-03T05:11:39.665Z,1.98
2023-04-03T05:14:06.322Z,2.05
2023-04-03T05:16:34.890Z,2.05
2023-04-03T05:19:01.915Z,1.80
2023-04-03T05:21:28.600Z,2.03
2023-04-03T05:23:55.183Z,2.33
2023-04-03T05:26:21.872Z,2.45
2023-04-03T05:28:48.546Z,2.17
2023-04-03T05:31:15.207Z,2.47
2023-04-03T05:33:43.477Z,2.33
2023-04-03T05:36:10.463Z,2.10
2023-04-03T05:38:37.358Z,2.10
2023-04-03T05:41:05.963Z,1.88
2023-04-03T05:43:32.629Z,1.67
2023-04-03T05:45:59.376Z,1.80
2023-04-03T05:48:26.054Z,1.90
2023-04-03T05:50:55.173Z,1.75
2023-04-03T05:53:27.578Z,2.28
2023-04-03T05:55:54.310Z,1.88
2023-04-03T05:58:20.961Z,1.50
2023-04-03T06:00:47.575Z,2.08
2023-04-03T06:03:14.314Z,2.15
2023-04-03T06:05:41.026Z,1.65
2023-04-03T06:08:09.171Z,1.70
2023-04-03T06:10:36.313Z,2.60
2023-04-03T06:13:03.276Z,1.98
2023-04-03T06:15:29.901Z,2.00
2023-04-03T06:17:56.635Z,2.08
2023-04-03T06:20:23.348Z,1.60
2023-04-03T06:22:50.207Z,1.90
2023-04-03T06:25:18.542Z,1.52
2023-04-03T06:27:45.183Z,1.63
2023-04-03T06:30:12.339Z,1.70
2023-04-03T06:32:39.173Z,2.42
2023-04-03T06:35:07.049Z,2.00
2023-04-03T06:37:33.854Z,2.00
2023-04-03T06:40:00.454Z,1.60
2023-04-03T06:42:28.593Z,1.73
2023-04-03T06:44:55.160Z,1.67
2023-04-03T06:47:21.871Z,1.97
2023-04-03T06:49:48.732Z,1.60
2023-04-03T06:52:15.481Z,1.90
2023-04-03T06:54:42.152Z,1.58
2023-04-03T06:57:09.443Z,1.90
2023-04-03T06:59:37.716Z,1.80
2023-04-03T07:02:05.034Z,2.42
2023-04-03T07:04:31.865Z,2.17
2023-04-03T07:06:58.502Z,1.55
2023-04-03T07:09:25.100Z,1.70
2023-04-03T07:11:51.678Z,2.00
2023-04-03T07:14:18.260Z,1.83
2023-04-03T07:16:46.247Z,2.20
2023-04-03T07:19:12.875Z,1.52
2023-04-03T07:21:39.516Z,1.92
2023-04-03T07:24:06.617Z,1.77
2023-04-03T07:26:33.507Z,2.05
2023-04-03T07:29:00.161Z,1.70
2023-04-03T07:31:26.909Z,2.00
2023-04-03T07:33:55.100Z,2.20
2023-04-03T07:36:23.028Z,2.75
2023-04-03T07:38:50.098Z,1.80
2023-04-03T07:41:18.845Z,3.35
2023-04-03T07:43:45.661Z,2.00
2023-04-03T07:46:12.432Z,1.98
2023-04-03T07:48:39.268Z,2.03
2023-04-03T07:51:07.632Z,1.90
2023-04-03T07:53:34.477Z,1.85
2023-04-03T07:56:01.528Z,1.92
2023-04-03T07:58:28.230Z,2.20
2023-04-03T08:00:54.813Z,1.95
2023-04-03T08:03:21.774Z,1.92
2023-04-03T08:05:50.067Z,2.30
2023-04-03T08:08:21.491Z,2.50
2023-04-03T08:10:50.154Z,1.45
2023-04-03T08:13:16.950Z,2.22
2023-04-03T08:15:43.591Z,1.60
2023-04-03T08:18:10.340Z,1.75
2023-04-03T08:20:38.466Z,1.63
2023-04-03T08:23:05.132Z,1.65
2023-04-03T08:25:33.251Z,2.13
2023-04-03T08:27:59.884Z,1.50
2023-04-03T08:30:27.145Z,1.88
2023-04-03T08:32:53.729Z,1.75
2023-04-03T08:35:20.426Z,1.50
2023-04-03T08:37:47.147Z,1.65
2023-04-03T08:40:16.902Z,1.33
2023-04-03T08:42:55.076Z,1.52
2023-04-03T08:45:28.533Z,1.65
2023-04-03T08:48:01.243Z,1.30
2023-04-03T08:50:32.448Z,1.80
2023-04-03T08:53:00.093Z,1.35
2023-04-03T08:55:28.955Z,1.33
2023-04-03T08:58:01.619Z,1.50
2023-04-03T09:00:32.066Z,1.20
2023-04-03T09:02:58.827Z,1.42
2023-04-03T09:05:34.641Z,1.20
2023-04-03T09:08:05.866Z,1.30
2023-04-03T09:10:36.062Z,1.55
2023-04-03T09:13:09.265Z,1.50
2023-04-03T09:15:39.473Z,1.25
2023-04-03T09:18:14.448Z,1.05
2023-04-03T09:20:47.166Z,1.33
2023-04-03T09:23:20.407Z,1.20
2023-04-03T09:25:47.211Z,1.30
2023-04-03T09:28:15.552Z,1.00
2023-04-03T09:30:42.187Z,1.17
2023-04-03T09:33:09.891Z,1.60
2023-04-03T09:35:47.388Z,1.48
2023-04-03T09:38:18.778Z,1.20
2023-04-03T09:40:46.851Z,1.48
2023-04-03T09:43:29.853Z,1.23
2023-04-03T09:45:57.813Z,1.40
2023-04-03T09:48:26.064Z,1.20
2023-04-03T09:50:59.694Z,1.30
2023-04-03T09:53:29.730Z,1.25
2023-04-03T09:55:56.806Z,1.40
2023-04-03T09:58:31.398Z,1.30
2023-04-03T10:01:04.025Z,1.30
2023-04-03T10:03:34.559Z,1.20
2023-04-03T10:06:01.610Z,1.30
2023-04-03T10:08:30.952Z,1.23
2023-04-03T10:11:13.218Z,1.40
2023-04-03T10:13:55.838Z,1.00
2023-04-03T10:16:27.008Z,0.93
2023-04-03T10:19:04.275Z,0.73
2023-04-03T10:21:39.184Z,0.68
2023-04-03T10:24:12.283Z,1.10
2023-04-03T10:26:46.640Z,0.77
2023-04-03T10:29:26.722Z,0.80
2023-04-03T10:32:02.803Z,0.90
2023-04-03T10:34:32.795Z,0.70
2023-04-03T10:37:09.512Z,0.68
2023-04-03T10:39:44.996Z,0.70
2023-04-03T10:42:17.582Z,0.88
2023-04-03T10:45:00.062Z,0.65
2023-04-03T10:47:34.416Z,0.60
2023-04-03T10:50:21.133Z,0.70
2023-04-03T10:52:53.507Z,0.60
2023-04-03T10:55:32.562Z,0.60
2023-04-03T10:58:00.479Z,1.00
2023-04-03T11:00:34.917Z,0.85
2023-04-03T11:03:06.330Z,0.90
2023-04-03T11:05:37.942Z,0.80
2023-04-03T11:08:11.650Z,0.80
2023-04-03T11:10:43.600Z,0.77
2023-04-03T11:13:14.206Z,0.70
2023-04-03T11:15:43.569Z,0.90
2023-04-03T11:18:14.935Z,0.80
2023-04-03T11:20:44.714Z,1.00
2023-04-03T11:23:20.477Z,0.70
2023-04-03T11:25:50.104Z,0.95
2023-04-03T11:28:16.738Z,0.50
2023-04-03T11:30:51.919Z,0.70
2023-04-03T11:33:35.641Z,0.90
2023-04-03T11:36:19.008Z,0.93
2023-04-03T11:38:55.819Z,0.70
2023-04-03T11:41:28.785Z,0.73
2023-04-03T11:44:01.103Z,0.85
2023-04-03T11:46:57.673Z,1.00
2023-04-03T11:49:59.945Z,0.70
2023-04-03T11:52:58.573Z,0.82
2023-04-03T11:55:54.944Z,0.90
2023-04-03T11:58:22.499Z,0.90
2023-04-03T12:00:51.822Z,1.00
2023-04-03T12:03:50.435Z,1.00
2023-04-03T12:06:52.655Z,0.75
2023-04-03T12:09:25.982Z,0.70
2023-04-03T12:11:53.240Z,0.88
2023-04-03T12:14:23.815Z,0.80
2023-04-03T12:16:50.838Z,1.00
2023-04-03T12:19:42.762Z,1.10
2023-04-03T12:22:15.410Z,0.90
2023-04-03T12:24:43.228Z,0.75
2023-04-03T12:27:33.621Z,0.88
2023-04-03T12:30:23.786Z,1.03
2023-04-03T12:33:14.562Z,2.40
2023-04-03T12:35:52.119Z,0.85
2023-04-03T12:38:48.047Z,0.95
2023-04-03T12:41:22.749Z,1.02
2023-04-03T12:44:16.404Z,1.05
2023-04-03T12:46:46.171Z,0.70
2023-04-03T12:49:31.381Z,0.73
2023-04-03T12:51:59.440Z,1.00
2023-04-03T12:54:31.625Z,0.90
2023-04-03T12:57:10.903Z,0.70
2023-04-03T12:59:38.052Z,0.80
2023-04-03T13:02:20.261Z,0.63
2023-04-03T13:04:47.577Z,1.08
2023-04-03T13:07:23.450Z,0.75
2023-04-03T13:09:57.622Z,0.98
2023-04-03T13:12:24.289Z,0.80
2023-04-03T13:14:55.188Z,1.20
2023-04-03T13:17:22.998Z,1.08
2023-04-03T13:19:49.748Z,1.00
2023-04-03T13:22:27.730Z,0.80
2023-04-03T13:24:57.999Z,0.65
2023-04-03T13:27:24.763Z,0.90
2023-04-03T13:29:53.044Z,0.90
2023-04-03T13:32:22.292Z,0.68
2023-04-03T13:34:50.103Z,1.00
2023-04-03T13:37:24.082Z,0.70
2023-04-03T13:39:59.993Z,0.63
2023-04-03T13:42:28.298Z,0.60
2023-04-03T13:45:16.442Z,0.60
2023-04-03T13:47:44.969Z,0.77
2023-04-03T13:50:19.073Z,0.77
2023-04-03T13:52:49.860Z,0.57
2023-04-03T13:55:37.436Z,0.50
2023-04-03T13:58:22.545Z,0.75
2023-04-03T14:00:51.704Z,0.95
2023-04-03T14:03:21.820Z,0.80
2023-04-03T14:05:48.497Z,0.50
2023-04-03T14:08:16.524Z,0.60
2023-04-03T14:10:43.275Z,0.95
2023-04-03T14:13:12.676Z,0.55
2023-04-03T14:15:39.637Z,0.63
2023-04-03T14:18:07.864Z,0.45
2023-04-03T14:20:34.758Z,0.50
2023-04-03T14:23:01.419Z,0.35
2023-04-03T14:25:29.434Z,0.60
2023-04-03T14:27:56.123Z,0.40
2023-04-03T14:30:24.952Z,0.50
2023-04-03T14:32:52.039Z,0.60
2023-04-03T14:35:19.697Z,0.30
2023-04-03T14:37:48.056Z,0.57
2023-04-03T14:40:17.583Z,0.70
2023-04-03T14:42:45.690Z,0.55
2023-04-03T14:45:14.144Z,0.40
2023-04-03T14:47:45.344Z,0.50
2023-04-03T14:50:16.780Z,0.68
2023-04-03T14:52:44.308Z,0.50
2023-04-03T14:55:15.226Z,0.50
2023-04-03T14:57:42.056Z,0.40
2023-04-03T15:00:14.200Z,0.30
2023-04-03T15:02:41.162Z,0.60
2023-04-03T15:05:10.810Z,0.50
2023-04-03T15:07:38.801Z,0.77
2023-04-03T15:10:16.830Z,0.40
2023-04-03T15:12:44.725Z,0.60
2023-04-03T15:15:13.791Z,0.82
2023-04-03T15:17:40.815Z,0.38
2023-04-03T15:20:13.999Z,0.45
2023-04-03T15:22:40.689Z,0.30
2023-04-03T15:25:08.205Z,0.55
2023-04-03T15:27:34.841Z,0.55
2023-04-03T15:30:01.469Z,0.55
2023-04-03T15:32:31.256Z,0.70
2023-04-03T15:34:59.109Z,0.50
2023-04-03T15:37:25.949Z,0.60
2023-04-03T15:39:52.736Z,0.50
2023-04-03T15:42:19.330Z,0.93
2023-04-03T15:44:45.987Z,0.40
2023-04-03T15:47:12.773Z,0.50
2023-04-03T15:49:42.053Z,0.57
2023-04-03T15:52:08.935Z,0.65
2023-04-03T15:54:35.545Z,0.70
2023-04-03T15:57:02.233Z,0.68
2023-04-03T15:59:29.080Z,0.40
2023-04-03T16:01:55.903Z,0.50
2023-04-03T16:04:22.639Z,0.50
2023-04-03T16:06:51.184Z,0.55
2023-04-03T16:09:18.039Z,0.43
2023-04-03T16:11:44.779Z,0.50
2023-04-03T16:14:11.496Z,0.43
2023-04-03T16:16:38.556Z,0.70
2023-04-03T16:19:05.790Z,0.55
2023-04-03T16:21:33.124Z,0.55
2023-04-03T16:24:02.063Z,0.70
2023-04-03T16:26:28.708Z,0.40
2023-04-03T16:28:55.586Z,0.40
2023-04-03T16:31:23.498Z,0.47
2023-04-03T16:33:50.278Z,0.40
2023-04-03T16:36:17.014Z,0.60
2023-04-03T16:38:43.692Z,0.57
2023-04-03T16:41:11.667Z,0.38
2023-04-03T16:43:38.235Z,0.50
2023-04-03T16:46:05.179Z,0.70
2023-04-03T16:48:32.226Z,0.63
2023-04-03T16:50:59.114Z,0.60
2023-04-03T16:53:26.532Z,0.60
2023-04-03T16:55:53.176Z,0.50
2023-04-03T16:58:22.593Z,0.50
2023-04-03T17:00:50.762Z,0.40
2023-04-03T17:03:17.630Z,0.60
2023-04-03T17:05:47.835Z,0.43
2023-04-03T17:08:14.568Z,0.40
2023-04-03T17:10:41.148Z,0.50
2023-04-03T17:13:07.851Z,0.40
2023-04-03T17:15:36.194Z,0.60
2023-04-03T17:18:02.996Z,0.57
2023-04-03T17:20:30.442Z,0.98
2023-04-03T17:22:57.128Z,0.60
2023-04-03T17:25:23.736Z,0.50
2023-04-03T17:27:50.321Z,0.47
2023-04-03T17:30:17.126Z,0.50
2023-04-03T17:32:45.222Z,0.35
2023-04-03T17:35:12.085Z,0.73
2023-04-03T17:37:38.760Z,0.52
2023-04-03T17:40:06.641Z,0.60
2023-04-03T17:42:33.282Z,0.70
2023-04-03T17:44:59.970Z,0.30
2023-04-03T17:47:26.654Z,0.32
2023-04-03T17:49:54.803Z,0.40
2023-04-03T17:52:21.448Z,0.40
2023-04-03T17:54:48.085Z,0.50
2023-04-03T17:57:14.687Z,0.50
2023-04-03T17:59:41.451Z,0.32
2023-04-03T18:02:08.075Z,0.50
2023-04-03T18:04:34.706Z,0.40
2023-04-03T18:07:03.431Z,0.50
2023-04-03T18:09:32.931Z,0.60
2023-04-03T18:12:03.137Z,0.50
2023-04-03T18:14:29.924Z,0.57
2023-04-03T18:16:56.631Z,0.60
2023-04-03T18:19:23.949Z,0.50
2023-04-03T18:21:51.750Z,0.45
2023-04-03T18:24:21.640Z,0.55
2023-04-03T18:26:51.330Z,0.50
2023-04-03T18:29:18.552Z,0.75
2023-04-03T18:31:50.371Z,1.27
2023-04-03T18:34:17.036Z,0.70
2023-04-03T18:36:44.446Z,0.80
2023-04-03T18:39:11.135Z,0.80
2023-04-03T18:41:39.401Z,0.73
2023-04-03T18:44:11.424Z,0.70
2023-04-03T18:49:11.711Z,0.60
2023-04-03T18:51:38.381Z,0.85
2023-04-03T18:54:05.387Z,0.77
2023-04-03T18:56:32.077Z,0.57
2023-04-03T18:59:00.097Z,0.70
2023-04-03T19:01:26.875Z,0.70
2023-04-03T19:03:53.529Z,0.60
2023-04-03T19:06:20.329Z,0.88
2023-04-03T19:08:48.456Z,1.07
2023-04-03T19:11:15.260Z,0.60
2023-04-03T19:13:46.858Z,0.60
2023-04-03T19:16:29.918Z,0.50
2023-04-03T19:18:56.584Z,0.80
2023-04-03T19:21:23.170Z,0.63
2023-04-03T19:23:49.825Z,0.52
2023-04-03T19:26:16.707Z,1.00
2023-04-03T19:28:43.330Z,0.70
2023-04-03T19:31:13.919Z,0.60
2023-04-03T19:33:42.250Z,0.40
2023-04-03T19:36:09.798Z,0.45
2023-04-03T19:38:36.598Z,0.40
2023-04-03T19:41:04.289Z,0.50
2023-04-03T19:43:30.939Z,0.50
2023-04-03T19:45:57.605Z,0.40
2023-04-03T19:48:25.053Z,0.55
2023-04-03T19:50:53.036Z,0.40
2023-04-03T19:53:19.758Z,0.68
2023-04-03T19:55:46.745Z,0.50
2023-04-03T19:58:13.424Z,1.20
2023-04-03T20:00:40.204Z,0.50
2023-04-03T20:03:07.131Z,0.60
2023-04-03T20:05:33.754Z,0.68
2023-04-03T20:08:01.731Z,0.50
2023-04-03T20:10:28.381Z,0.50
2023-04-03T20:12:55.020Z,0.57
2023-04-03T20:15:21.646Z,0.57
2023-04-03T20:17:48.530Z,0.68
2023-04-03T20:20:15.443Z,0.90
2023-04-03T20:22:42.133Z,0.60
2023-04-03T20:25:13.751Z,0.52
2023-04-03T20:27:41.995Z,0.68
2023-04-03T20:30:12.235Z,0.50
2023-04-03T20:32:38.939Z,0.50
2023-04-03T20:35:06.684Z,0.70
2023-04-03T20:37:33.246Z,0.60
2023-04-03T20:40:00.015Z,0.63
2023-04-03T20:42:28.156Z,0.63
2023-04-03T20:44:54.764Z,0.68
2023-04-03T20:47:21.428Z,0.63
2023-04-03T20:49:48.076Z,0.45
2023-04-03T20:52:14.714Z,0.70
2023-04-03T20:54:41.355Z,0.50
2023-04-03T20:57:07.930Z,0.65
2023-04-03T20:59:35.965Z,0.50
2023-04-03T21:02:02.544Z,0.70
2023-04-03T21:04:34.358Z,0.70
2023-04-03T21:07:38.145Z,0.90
2023-04-03T21:10:42.211Z,0.60
2023-04-03T21:13:46.393Z,0.60
2023-04-03T21:16:12.721Z,0.50
2023-04-03T21:18:57.412Z,0.60
2023-04-03T21:21:25.206Z,0.63
2023-04-03T21:23:53.361Z,0.82
2023-04-03T21:26:21.139Z,0.60
2023-04-03T21:28:49.641Z,0.70
2023-04-03T21:31:16.292Z,0.57
2023-04-03T21:33:44.281Z,0.95
2023-04-03T21:36:10.888Z,0.43
2023-04-03T21:38:37.480Z,0.70
2023-04-03T21:41:04.326Z,0.60
2023-04-03T21:43:30.958Z,0.63
2023-04-03T21:45:58.503Z,0.52
2023-04-03T21:48:26.185Z,0.50
2023-04-03T21:50:54.323Z,0.97
2023-04-03T21:53:21.316Z,0.60
2023-04-03T21:55:54.074Z,0.63
2023-04-03T21:58:21.130Z,0.50
2023-04-03T22:00:47.883Z,0.35
2023-04-03T22:03:19.268Z,0.80
2023-04-03T22:05:45.977Z,0.65
2023-04-03T22:08:13.955Z,0.68
2023-04-03T22:10:40.992Z,0.70
2023-04-03T22:13:07.904Z,0.50
2023-04-03T22:15:36.201Z,0.60
2023-04-03T22:18:02.908Z,0.52
2023-04-03T22:20:29.729Z,0.57
2023-04-03T22:22:56.367Z,0.52
2023-04-03T22:25:24.388Z,0.68
2023-04-03T22:27:50.969Z,0.70
2023-04-03T22:30:17.557Z,0.60
2023-04-03T22:32:44.217Z,0.70
2023-04-03T22:35:10.821Z,0.70
2023-04-03T22:37:37.420Z,0.90
2023-04-03T22:40:04.633Z,0.60
2023-04-03T22:42:32.630Z,0.95
2023-04-03T22:44:59.253Z,0.77
2023-04-03T22:47:25.839Z,0.50
2023-04-03T22:49:52.615Z,0.70
2023-04-03T22:52:19.451Z,0.90
2023-04-03T22:54:46.044Z,0.95
2023-04-03T22:57:12.683Z,1.13
2023-04-03T22:59:40.655Z,0.80
2023-04-03T23:02:07.227Z,0.75
2023-04-03T23:04:33.964Z,0.60
2023-04-03T23:07:00.626Z,0.60
2023-04-03T23:09:27.298Z,0.80
2023-04-03T23:11:53.902Z,0.73
2023-04-03T23:14:20.569Z,0.68
2023-04-03T23:16:48.631Z,0.60
2023-04-03T23:19:15.388Z,0.73
2023-04-03T23:21:41.978Z,1.02
2023-04-03T23:24:08.613Z,0.73
2023-04-03T23:26:35.206Z,0.80
2023-04-03T23:29:02.167Z,0.90
2023-04-03T23:31:28.786Z,0.60
2023-04-03T23:33:56.773Z,0.70
2023-04-03T23:36:23.403Z,0.85
2023-04-03T23:38:49.963Z,0.85
2023-04-03T23:41:16.529Z,1.00
2023-04-03T23:43:43.149Z,0.60
2023-04-03T23:46:09.900Z,0.50
2023-04-03T23:48:36.558Z,0.60
2023-04-03T23:51:04.628Z,0.70
2023-04-03T23:53:31.240Z,0.97
2023-04-03T23:55:58.049Z,0.95
2023-04-03T23:58:24.784Z,0.73
